sensor_id;sensor_type;location;lat;lon;timestamp;pressure;altitude;pressure_sealevel;temperature;humidity
62111;BME280;48102;47.526;19.072;2023-03-14T04:41:24;99352.94;;;6.06;99.20
62111;BME280;48102;47.526;19.072;2023-03-14T04:44:27;99352.94;;;6.06;99.20
62111;BME280;48102;47.526;19.072;2023-03-14T04:47:30;99364.09;;;5.51;100.00
62111;BME280;48102;47.526;19.072;2023-03-14T04:50:34;99363.38;;;5.47;100.00
62111;BME280;48102;47.526;19.072;2023-03-14T04:53:37;99367.84;;;5.45;100.00
62111;BME280;48102;47.526;19.072;2023-03-14T04:56:40;99369.03;;;5.38;100.00
62111;BME280;48102;47.526;19.072;2023-03-14T04:59:43;99377.00;;;5.35;100.00
62111;BME280;48102;47.526;19.072;2023-03-14T05:02:52;99370.28;;;5.29;100.00
62111;BME280;48102;47.526;19.072;2023-03-14T05:05:55;99372.69;;;5.34;100.00
62111;BME280;48102;47.526;19.072;2023-03-14T05:09:00;99366.91;;;5.27;100.00
62111;BME280;48102;47.526;19.072;2023-03-14T05:12:04;99360.69;;;5.30;100.00
62111;BME280;48102;47.526;19.072;2023-03-14T05:15:08;99355.75;;;5.43;100.00
62111;BME280;48102;47.526;19.072;2023-03-14T05:18:11;99349.88;;;5.58;100.00
62111;BME280;48102;47.526;19.072;2023-03-14T05:21:15;99345.34;;;5.81;100.00
62111;BME280;48102;47.526;19.072;2023-03-14T05:24:18;99336.13;;;5.92;100.00
62111;BME280;48102;47.526;19.072;2023-03-14T05:27:22;99334.44;;;6.09;100.00
62111;BME280;48102;47.526;19.072;2023-03-14T05:30:27;99332.09;;;6.21;100.00
62111;BME280;48102;47.526;19.072;2023-03-14T05:33:33;99324.38;;;6.37;100.00
62111;BME280;48102;47.526;19.072;2023-03-14T05:36:38;99335.94;;;6.50;100.00
62111;BME280;48102;47.526;19.072;2023-03-14T05:39:41;99346.41;;;6.68;99.68
62111;BME280;48102;47.526;19.072;2023-03-14T05:42:44;99340.09;;;6.89;97.05
62111;BME280;48102;47.526;19.072;2023-03-14T05:45:47;99330.97;;;7.14;97.62
62111;BME280;48102;47.526;19.072;2023-03-14T05:48:51;99329.53;;;7.41;93.91
62111;BME280;48102;47.526;19.072;2023-03-14T05:51:54;99332.97;;;7.75;90.47
62111;BME280;48102;47.526;19.072;2023-03-14T05:54:57;99334.84;;;8.04;87.59
62111;BME280;48102;47.526;19.072;2023-03-14T05:58:00;99320.34;;;8.45;80.63
62111;BME280;48102;47.526;19.072;2023-03-14T06:01:04;99321.84;;;8.79;79.50
62111;BME280;48102;47.526;19.072;2023-03-14T06:04:08;99327.47;;;9.17;73.67
62111;BME280;48102;47.526;19.072;2023-03-14T06:07:12;99326.44;;;9.48;71.63
62111;BME280;48102;47.526;19.072;2023-03-14T06:10:15;99334.03;;;9.82;68.83
62111;BME280;48102;47.526;19.072;2023-03-14T06:13:19;99345.78;;;10.17;64.02
62111;BME280;48102;47.526;19.072;2023-03-14T06:16:22;99335.81;;;10.37;61.78
62111;BME280;48102;47.526;19.072;2023-03-14T06:19:27;99336.03;;;10.46;60.50
62111;BME280;48102;47.526;19.072;2023-03-14T06:22:30;99332.00;;;10.68;57.29
62111;BME280;48102;47.526;19.072;2023-03-14T06:25:34;99330.09;;;10.83;57.47
62111;BME280;48102;47.526;19.072;2023-03-14T06:28:38;99325.09;;;11.18;57.47
62111;BME280;48102;47.526;19.072;2023-03-14T06:31:40;99328.78;;;11.15;56.22
62111;BME280;48102;47.526;19.072;2023-03-14T06:34:49;99335.00;;;10.89;56.14
62111;BME280;48102;47.526;19.072;2023-03-14T06:37:54;99347.38;;;10.74;56.53
62111;BME280;48102;47.526;19.072;2023-03-14T06:41:06;99349.62;;;10.80;56.15
62111;BME280;48102;47.526;19.072;2023-03-14T06:44:10;99339.44;;;10.61;57.34
62111;BME280;48102;47.526;19.072;2023-03-14T06:47:13;99338.37;;;10.51;57.53
62111;BME280;48102;47.526;19.072;2023-03-14T06:50:17;99335.44;;;10.55;58.36
62111;BME280;48102;47.526;19.072;2023-03-14T06:53:21;99342.72;;;10.65;57.06
62111;BME280;48102;47.526;19.072;2023-03-14T06:56:25;99346.53;;;10.73;58.55
62111;BME280;48102;47.526;19.072;2023-03-14T06:59:28;99347.84;;;10.80;57.57
62111;BME280;48102;47.526;19.072;2023-03-14T07:02:32;99327.28;;;10.86;57.38
62111;BME280;48102;47.526;19.072;2023-03-14T07:05:46;99323.81;;;10.85;57.59
62111;BME280;48102;47.526;19.072;2023-03-14T07:08:49;99337.31;;;10.93;56.35
62111;BME280;48102;47.526;19.072;2023-03-14T07:11:52;99338.25;;;10.92;56.28
62111;BME280;48102;47.526;19.072;2023-03-14T07:14:55;99327.19;;;11.13;56.00
62111;BME280;48102;47.526;19.072;2023-03-14T07:18:05;99321.84;;;11.14;56.67
62111;BME280;48102;47.526;19.072;2023-03-14T07:21:08;99326.88;;;11.30;57.63
62111;BME280;48102;47.526;19.072;2023-03-14T07:24:15;99327.19;;;11.25;56.13
62111;BME280;48102;47.526;19.072;2023-03-14T07:27:17;99325.63;;;11.36;55.69
62111;BME280;48102;47.526;19.072;2023-03-14T07:30:24;99318.66;;;11.22;56.86
62111;BME280;48102;47.526;19.072;2023-03-14T07:33:27;99321.19;;;11.36;57.16
62111;BME280;48102;47.526;19.072;2023-03-14T07:36:30;99312.94;;;11.53;56.99
62111;BME280;48102;47.526;19.072;2023-03-14T07:39:33;99309.19;;;11.81;56.26
62111;BME280;48102;47.526;19.072;2023-03-14T07:42:38;99302.09;;;11.82;55.57
62111;BME280;48102;47.526;19.072;2023-03-14T07:45:45;99318.44;;;12.00;55.84
62111;BME280;48102;47.526;19.072;2023-03-14T07:48:52;99291.34;;;11.98;55.61
62111;BME280;48102;47.526;19.072;2023-03-14T07:51:55;99297.56;;;12.21;54.94
62111;BME280;48102;47.526;19.072;2023-03-14T07:54:58;99294.94;;;12.45;55.16
62111;BME280;48102;47.526;19.072;2023-03-14T07:58:01;99296.25;;;12.86;53.03
62111;BME280;48102;47.526;19.072;2023-03-14T08:01:05;99285.25;;;13.14;52.92
62111;BME280;48102;47.526;19.072;2023-03-14T08:04:08;99284.59;;;13.57;52.19
62111;BME280;48102;47.526;19.072;2023-03-14T08:07:11;99277.81;;;13.87;50.78
62111;BME280;48102;47.526;19.072;2023-03-14T08:10:16;99282.75;;;13.91;50.74
62111;BME280;48102;47.526;19.072;2023-03-14T08:13:24;99277.22;;;13.72;49.95
62111;BME280;48102;47.526;19.072;2023-03-14T08:16:28;99266.91;;;13.69;50.78
62111;BME280;48102;47.526;19.072;2023-03-14T08:19:30;99262.16;;;13.84;50.08
62111;BME280;48102;47.526;19.072;2023-03-14T08:22:33;99257.47;;;13.87;51.13
62111;BME280;48102;47.526;19.072;2023-03-14T08:25:37;99251.28;;;13.98;50.19
62111;BME280;48102;47.526;19.072;2023-03-14T08:28:40;99258.91;;;14.23;49.24
62111;BME280;48102;47.526;19.072;2023-03-14T08:31:43;99264.44;;;14.20;49.98
62111;BME280;48102;47.526;19.072;2023-03-14T08:34:47;99259.38;;;14.28;50.58
62111;BME280;48102;47.526;19.072;2023-03-14T08:37:49;99246.97;;;14.61;49.17
62111;BME280;48102;47.526;19.072;2023-03-14T08:40:56;99237.91;;;14.85;49.12
62111;BME280;48102;47.526;19.072;2023-03-14T08:43:59;99236.13;;;15.16;48.99
62111;BME280;48102;47.526;19.072;2023-03-14T08:47:02;99232.06;;;15.52;47.13
62111;BME280;48102;47.526;19.072;2023-03-14T08:50:05;99233.56;;;15.45;48.11
62111;BME280;48102;47.526;19.072;2023-03-14T08:53:10;99227.62;;;15.22;48.14
62111;BME280;48102;47.526;19.072;2023-03-14T08:56:13;99230.53;;;15.19;48.76
62111;BME280;48102;47.526;19.072;2023-03-14T08:59:15;99208.00;;;15.34;48.16
62111;BME280;48102;47.526;19.072;2023-03-14T09:02:19;99208.09;;;15.63;46.59
62111;BME280;48102;47.526;19.072;2023-03-14T09:05:22;99197.53;;;15.42;46.52
62111;BME280;48102;47.526;19.072;2023-03-14T09:08:25;99202.13;;;15.40;46.36
62111;BME280;48102;47.526;19.072;2023-03-14T09:11:28;99207.31;;;15.42;47.21
62111;BME280;48102;47.526;19.072;2023-03-14T09:14:31;99194.47;;;15.47;46.08
62111;BME280;48102;47.526;19.072;2023-03-14T09:17:34;99210.22;;;15.79;46.21
62111;BME280;48102;47.526;19.072;2023-03-14T09:20:39;99207.31;;;15.92;45.53
62111;BME280;48102;47.526;19.072;2023-03-14T09:23:42;99197.53;;;16.02;45.82
62111;BME280;48102;47.526;19.072;2023-03-14T09:26:47;99187.75;;;16.02;45.00
62111;BME280;48102;47.526;19.072;2023-03-14T09:29:50;99186.31;;;15.89;45.34
62111;BME280;48102;47.526;19.072;2023-03-14T09:32:53;99169.97;;;16.03;44.98
62111;BME280;48102;47.526;19.072;2023-03-14T09:35:58;99167.47;;;16.21;45.60
62111;BME280;48102;47.526;19.072;2023-03-14T09:39:02;99153.44;;;16.19;44.98
62111;BME280;48102;47.526;19.072;2023-03-14T09:42:16;99152.63;;;16.28;44.67
62111;BME280;48102;47.526;19.072;2023-03-14T09:45:35;99157.72;;;16.68;43.83
62111;BME280;48102;47.526;19.072;2023-03-14T09:48:40;99157.34;;;17.10;43.76
62111;BME280;48102;47.526;19.072;2023-03-14T09:51:46;99145.03;;;17.27;44.13
62111;BME280;48102;47.526;19.072;2023-03-14T09:54:52;99147.28;;;17.32;43.34
62111;BME280;48102;47.526;19.072;2023-03-14T09:58:00;99121.56;;;17.40;43.44
62111;BME280;48102;47.526;19.072;2023-03-14T10:01:07;99132.37;;;17.56;43.06
62111;BME280;48102;47.526;19.072;2023-03-14T10:04:15;99116.97;;;17.78;42.58
62111;BME280;48102;47.526;19.072;2023-03-14T10:07:28;99111.94;;;18.11;41.78
62111;BME280;48102;47.526;19.072;2023-03-14T10:10:32;99095.44;;;18.33;42.34
62111;BME280;48102;47.526;19.072;2023-03-14T10:13:35;99084.19;;;18.47;41.26
62111;BME280;48102;47.526;19.072;2023-03-14T10:16:44;99079.09;;;18.62;40.97
62111;BME280;48102;47.526;19.072;2023-03-14T10:19:53;99078.50;;;19.11;40.54
62111;BME280;48102;47.526;19.072;2023-03-14T10:22:56;99080.28;;;19.52;40.39
62111;BME280;48102;47.526;19.072;2023-03-14T10:26:46;99056.78;;;19.72;39.22
62111;BME280;48102;47.526;19.072;2023-03-14T10:29:55;99045.69;;;20.41;38.34
62111;BME280;48102;47.526;19.072;2023-03-14T10:33:15;99038.63;;;20.64;37.74
62111;BME280;48102;47.526;19.072;2023-03-14T10:36:28;99041.81;;;21.07;37.07
62111;BME280;48102;47.526;19.072;2023-03-14T10:39:41;99054.28;;;21.15;35.80
62111;BME280;48102;47.526;19.072;2023-03-14T10:42:48;99033.00;;;20.90;35.95
62111;BME280;48102;47.526;19.072;2023-03-14T10:46:08;99036.00;;;20.95;36.26
62111;BME280;48102;47.526;19.072;2023-03-14T10:49:35;99036.09;;;20.71;35.93
62111;BME280;48102;47.526;19.072;2023-03-14T10:52:47;99030.34;;;20.90;35.68
62111;BME280;48102;47.526;19.072;2023-03-14T10:56:02;99028.78;;;21.27;35.96
62111;BME280;48102;47.526;19.072;2023-03-14T10:59:13;99015.41;;;21.50;35.59
62111;BME280;48102;47.526;19.072;2023-03-14T11:06:20;99003.63;;;21.59;35.34
62111;BME280;48102;47.526;19.072;2023-03-14T11:09:45;99000.47;;;21.56;34.44
62111;BME280;48102;47.526;19.072;2023-03-14T11:16:26;98992.16;;;21.19;35.10
62111;BME280;48102;47.526;19.072;2023-03-14T11:22:46;98982.91;;;20.99;35.45
62111;BME280;48102;47.526;19.072;2023-03-14T11:25:56;98963.59;;;21.58;35.32
62111;BME280;48102;47.526;19.072;2023-03-14T11:32:35;98967.47;;;21.32;35.28
62111;BME280;48102;47.526;19.072;2023-03-14T11:35:45;98944.03;;;21.34;34.90
62111;BME280;48102;47.526;19.072;2023-03-14T11:38:55;98947.88;;;21.54;34.89
62111;BME280;48102;47.526;19.072;2023-03-14T11:42:00;98936.16;;;21.56;35.30
62111;BME280;48102;47.526;19.072;2023-03-14T11:45:16;98936.31;;;21.31;35.33
62111;BME280;48102;47.526;19.072;2023-03-14T11:51:39;98910.59;;;21.22;35.54
62111;BME280;48102;47.526;19.072;2023-03-14T11:54:50;98907.00;;;21.52;35.30
62111;BME280;48102;47.526;19.072;2023-03-14T11:58:01;98901.91;;;21.43;34.77
62111;BME280;48102;47.526;19.072;2023-03-14T12:01:11;98899.25;;;21.58;34.82
62111;BME280;48102;47.526;19.072;2023-03-14T12:08:00;98913.22;;;21.07;35.26
62111;BME280;48102;47.526;19.072;2023-03-14T12:11:24;98904.78;;;20.95;35.04
62111;BME280;48102;47.526;19.072;2023-03-14T12:14:33;98889.22;;;21.14;35.25
62111;BME280;48102;47.526;19.072;2023-03-14T12:17:38;98900.34;;;21.25;34.85
62111;BME280;48102;47.526;19.072;2023-03-14T12:20:51;98882.88;;;21.38;34.32
62111;BME280;48102;47.526;19.072;2023-03-14T12:23:57;98885.44;;;21.08;34.43
62111;BME280;48102;47.526;19.072;2023-03-14T12:27:02;98871.63;;;20.73;34.51
62111;BME280;48102;47.526;19.072;2023-03-14T12:30:17;98878.94;;;20.48;35.08
62111;BME280;48102;47.526;19.072;2023-03-14T12:33:27;98862.06;;;20.40;35.39
62111;BME280;48102;47.526;19.072;2023-03-14T12:43:30;98848.16;;;20.44;36.12
62111;BME280;48102;47.526;19.072;2023-03-14T12:46:33;98853.09;;;20.64;36.51
62111;BME280;48102;47.526;19.072;2023-03-14T12:49:37;98854.16;;;20.54;36.31
62111;BME280;48102;47.526;19.072;2023-03-14T12:53:30;98839.34;;;20.36;36.61
62111;BME280;48102;47.526;19.072;2023-03-14T12:59:58;98850.09;;;19.88;37.17
62111;BME280;48102;47.526;19.072;2023-03-14T13:03:15;98836.25;;;19.76;37.46
62111;BME280;48102;47.526;19.072;2023-03-14T13:06:54;98834.50;;;19.61;37.86
62111;BME280;48102;47.526;19.072;2023-03-14T13:13:23;98825.53;;;18.88;41.13
62111;BME280;48102;47.526;19.072;2023-03-14T13:16:28;98823.50;;;18.98;40.07
62111;BME280;48102;47.526;19.072;2023-03-14T13:19:31;98821.16;;;19.03;38.97
62111;BME280;48102;47.526;19.072;2023-03-14T13:22:35;98819.50;;;19.02;39.22
62111;BME280;48102;47.526;19.072;2023-03-14T13:25:41;98832.03;;;19.02;39.21
62111;BME280;48102;47.526;19.072;2023-03-14T13:28:44;98842.53;;;18.95;38.62
62111;BME280;48102;47.526;19.072;2023-03-14T13:31:50;98840.84;;;18.86;39.27
62111;BME280;48102;47.526;19.072;2023-03-14T13:34:57;98836.50;;;18.77;39.10
62111;BME280;48102;47.526;19.072;2023-03-14T13:38:01;98852.47;;;18.69;39.43
62111;BME280;48102;47.526;19.072;2023-03-14T13:41:14;98849.97;;;18.59;40.88
62111;BME280;48102;47.526;19.072;2023-03-14T13:47:27;98849.06;;;17.84;43.92
62111;BME280;48102;47.526;19.072;2023-03-14T13:50:30;98849.31;;;18.07;43.44
62111;BME280;48102;47.526;19.072;2023-03-14T13:53:45;98845.22;;;18.28;43.04
62111;BME280;48102;47.526;19.072;2023-03-14T13:56:48;98850.41;;;18.38;41.94
62111;BME280;48102;47.526;19.072;2023-03-14T14:00:04;98848.09;;;18.51;41.23
62111;BME280;48102;47.526;19.072;2023-03-14T14:03:14;98846.47;;;18.67;40.63
62111;BME280;48102;47.526;19.072;2023-03-14T14:06:34;98847.38;;;18.84;40.57
62111;BME280;48102;47.526;19.072;2023-03-14T14:09:40;98848.22;;;19.00;39.54
62111;BME280;48102;47.526;19.072;2023-03-14T14:12:52;98853.06;;;19.13;39.96
62111;BME280;48102;47.526;19.072;2023-03-14T14:15:59;98844.03;;;19.30;39.31
62111;BME280;48102;47.526;19.072;2023-03-14T14:19:03;98840.53;;;19.30;39.86
62111;BME280;48102;47.526;19.072;2023-03-14T14:22:10;98834.00;;;19.41;38.90
62111;BME280;48102;47.526;19.072;2023-03-14T14:25:14;98824.00;;;19.35;39.05
62111;BME280;48102;47.526;19.072;2023-03-14T14:28:27;98831.69;;;19.21;39.26
62111;BME280;48102;47.526;19.072;2023-03-14T14:31:31;98837.19;;;19.12;39.24
62111;BME280;48102;47.526;19.072;2023-03-14T14:34:44;98833.19;;;19.16;38.62
62111;BME280;48102;47.526;19.072;2023-03-14T14:37:53;98829.16;;;19.20;38.66
62111;BME280;48102;47.526;19.072;2023-03-14T14:41:00;98826.50;;;19.20;38.50
62111;BME280;48102;47.526;19.072;2023-03-14T14:44:05;98824.66;;;19.28;38.89
62111;BME280;48102;47.526;19.072;2023-03-14T14:47:15;98831.31;;;19.41;39.15
62111;BME280;48102;47.526;19.072;2023-03-14T14:56:39;98825.47;;;19.45;39.36
62111;BME280;48102;47.526;19.072;2023-03-14T14:59:43;98824.97;;;19.34;38.74
62111;BME280;48102;47.526;19.072;2023-03-14T15:03:10;98815.00;;;19.19;39.41
62111;BME280;48102;47.526;19.072;2023-03-14T15:06:12;98823.31;;;19.16;39.44
62111;BME280;48102;47.526;19.072;2023-03-14T15:09:15;98815.81;;;19.03;40.67
62111;BME280;48102;47.526;19.072;2023-03-14T15:12:22;98829.53;;;18.84;41.47
62111;BME280;48102;47.526;19.072;2023-03-14T15:15:27;98827.13;;;18.65;41.99
62111;BME280;48102;47.526;19.072;2023-03-14T15:18:34;98834.63;;;18.53;41.74
62111;BME280;48102;47.526;19.072;2023-03-14T15:21:36;98845.28;;;18.45;42.19
62111;BME280;48102;47.526;19.072;2023-03-14T15:24:40;98844.72;;;18.25;42.31
62111;BME280;48102;47.526;19.072;2023-03-14T15:27:43;98850.72;;;18.19;42.64
62111;BME280;48102;47.526;19.072;2023-03-14T15:30:51;98858.97;;;18.08;42.71
62111;BME280;48102;47.526;19.072;2023-03-14T15:33:54;98866.31;;;18.05;42.39
62111;BME280;48102;47.526;19.072;2023-03-14T15:36:56;98866.28;;;17.97;42.22
62111;BME280;48102;47.526;19.072;2023-03-14T15:39:59;98858.37;;;17.79;42.53
62111;BME280;48102;47.526;19.072;2023-03-14T15:43:02;98861.78;;;17.72;42.60
62111;BME280;48102;47.526;19.072;2023-03-14T15:46:05;98867.91;;;17.64;42.81
62111;BME280;48102;47.526;19.072;2023-03-14T15:49:09;98870.50;;;17.56;43.35
62111;BME280;48102;47.526;19.072;2023-03-14T15:52:14;98880.13;;;17.49;42.61
62111;BME280;48102;47.526;19.072;2023-03-14T15:55:18;98916.91;;;17.45;43.00
62111;BME280;48102;47.526;19.072;2023-03-14T15:58:21;98922.25;;;17.27;47.98
62111;BME280;48102;47.526;19.072;2023-03-14T16:01:24;98929.22;;;16.75;58.78
62111;BME280;48102;47.526;19.072;2023-03-14T16:04:28;98950.38;;;16.39;69.87
62111;BME280;48102;47.526;19.072;2023-03-14T16:07:31;98945.50;;;16.07;78.19
62111;BME280;48102;47.526;19.072;2023-03-14T16:10:35;98950.22;;;15.66;86.05
62111;BME280;48102;47.526;19.072;2023-03-14T16:13:40;98949.56;;;15.16;94.56
62111;BME280;48102;47.526;19.072;2023-03-14T16:16:43;98939.72;;;14.68;100.00
62111;BME280;48102;47.526;19.072;2023-03-14T16:19:46;98942.09;;;14.21;100.00
62111;BME280;48102;47.526;19.072;2023-03-14T16:22:49;98941.81;;;13.72;100.00
62111;BME280;48102;47.526;19.072;2023-03-14T16:25:53;98943.59;;;13.41;100.00
62111;BME280;48102;47.526;19.072;2023-03-14T16:28:56;98945.56;;;13.28;100.00
62111;BME280;48102;47.526;19.072;2023-03-14T16:31:59;98932.56;;;13.04;100.00
62111;BME280;48102;47.526;19.072;2023-03-14T16:35:02;98943.31;;;12.91;100.00
